createdAt,value
2022-09-23T00:00:42.452Z,13.65
2022-09-23T00:03:10.061Z,13.00
2022-09-23T00:05:38.202Z,12.98
2022-09-23T00:08:05.682Z,12.38
2022-09-23T00:10:32.723Z,12.98
2022-09-23T00:13:00.035Z,10.38
2022-09-23T00:15:27.078Z,12.55
2022-09-23T00:17:53.927Z,12.18
2022-09-23T00:20:20.893Z,11.98
2022-09-23T00:22:47.898Z,12.40
2022-09-23T00:25:14.873Z,12.18
2022-09-23T00:27:42.338Z,13.10
2022-09-23T00:30:10.078Z,12.70
2022-09-23T00:32:37.005Z,14.27
2022-09-23T00:35:07.161Z,12.88
2022-09-23T00:37:34.256Z,13.18
2022-09-23T00:40:01.359Z,13.80
2022-09-23T00:42:30.127Z,15.27
2022-09-23T00:44:58.039Z,14.93
2022-09-23T00:47:30.920Z,15.15
2022-09-23T00:50:18.099Z,14.40
2022-09-23T00:52:44.993Z,14.10
2022-09-23T00:55:14.377Z,13.98
2022-09-23T00:57:43.216Z,14.23
2022-09-23T01:00:10.340Z,13.23
2022-09-23T01:02:37.858Z,13.63
2022-09-23T01:05:05.638Z,14.05
2022-09-23T01:07:32.503Z,12.52
2022-09-23T01:10:00.080Z,13.43
2022-09-23T01:12:32.888Z,13.25
2022-09-23T01:15:03.308Z,13.30
2022-09-23T01:17:49.383Z,13.38
2022-09-23T01:20:19.484Z,14.10
2022-09-23T01:23:09.687Z,13.70
2022-09-23T01:25:55.314Z,13.48
2022-09-23T01:28:40.906Z,13.63
2022-09-23T01:31:37.233Z,14.05
2022-09-23T01:34:11.040Z,12.50
2022-09-23T01:36:38.587Z,13.30
2022-09-23T01:39:16.572Z,12.65
2022-09-23T01:42:02.242Z,12.60
2022-09-23T01:44:33.495Z,12.13
2022-09-23T01:47:23.424Z,11.90
2022-09-23T01:50:24.864Z,12.52
2022-09-23T01:52:52.620Z,12.07
2022-09-23T01:55:24.783Z,11.95
2022-09-23T01:58:00.068Z,12.52
2022-09-23T02:00:30.278Z,12.77
2022-09-23T02:03:17.411Z,11.98
2022-09-23T02:05:47.623Z,11.43
2022-09-23T02:08:17.383Z,11.60
2022-09-23T02:10:47.235Z,10.82
2022-09-23T02:13:24.690Z,11.67
2022-09-23T02:15:53.013Z,11.90
2022-09-23T02:18:22.214Z,13.57
2022-09-23T02:20:51.107Z,10.65
2022-09-23T02:23:39.556Z,11.23
2022-09-23T02:26:21.115Z,11.40
2022-09-23T02:29:05.498Z,12.95
2022-09-23T02:31:32.518Z,10.88
2022-09-23T02:34:06.029Z,10.70
2022-09-23T02:36:37.013Z,10.57
2022-09-23T02:39:05.266Z,10.85
2022-09-23T02:41:51.564Z,11.85
2022-09-23T02:44:19.703Z,11.88
2022-09-23T02:46:46.777Z,11.95
2022-09-23T02:49:24.842Z,12.98
2022-09-23T02:51:51.874Z,11.13
2022-09-23T02:54:20.399Z,13.43
2022-09-23T02:56:49.696Z,12.85
2022-09-23T02:59:20.665Z,13.38
2022-09-23T03:01:47.750Z,13.10
2022-09-23T03:04:33.329Z,12.57
2022-09-23T03:07:03.037Z,12.82
2022-09-23T03:09:32.794Z,13.23
2022-09-23T03:12:06.214Z,12.55
2022-09-23T03:14:41.050Z,13.18
2022-09-23T03:17:16.104Z,12.98
2022-09-23T03:19:47.996Z,11.68
2022-09-23T03:22:29.785Z,11.50
2022-09-23T03:25:00.399Z,11.93
2022-09-23T03:29:54.504Z,13.18
2022-09-23T03:32:23.190Z,11.75
2022-09-23T03:34:51.869Z,12.77
2022-09-23T03:37:24.764Z,12.27
2022-09-23T03:39:54.369Z,12.10
2022-09-23T03:42:23.480Z,12.57
2022-09-23T03:44:54.135Z,13.43
2022-09-23T03:49:48.758Z,12.75
2022-09-23T03:52:16.612Z,12.68
2022-09-23T03:54:43.781Z,12.55
2022-09-23T03:57:11.687Z,12.70
2022-09-23T03:59:38.883Z,12.68
2022-09-23T04:02:07.534Z,11.65
2022-09-23T04:04:36.061Z,12.48
2022-09-23T04:07:03.346Z,12.68
2022-09-23T04:09:30.609Z,11.80
2022-09-23T04:11:58.297Z,10.65
2022-09-23T04:14:25.333Z,11.80
2022-09-23T04:16:52.245Z,11.27
2022-09-23T04:19:19.070Z,11.05
2022-09-23T04:21:46.097Z,10.80
2022-09-23T04:24:13.210Z,10.88
2022-09-23T04:26:40.742Z,11.27
2022-09-23T04:29:08.483Z,9.82
2022-09-23T04:31:35.560Z,9.05
2022-09-23T04:34:02.634Z,8.18
2022-09-23T04:36:30.516Z,9.27
2022-09-23T04:38:57.574Z,8.60
2022-09-23T04:41:24.372Z,8.43
2022-09-23T04:43:51.146Z,7.68
2022-09-23T04:46:18.155Z,7.60
2022-09-23T04:48:45.232Z,8.30
2022-09-23T04:51:13.196Z,8.52
2022-09-23T04:53:41.234Z,7.93
2022-09-23T04:56:09.946Z,7.53
2022-09-23T04:58:36.890Z,7.72
2022-09-23T05:01:11.406Z,6.90
2022-09-23T05:03:38.890Z,7.05
2022-09-23T05:06:06.138Z,7.35
2022-09-23T05:08:32.964Z,7.13
2022-09-23T05:11:00.487Z,6.63
2022-09-23T05:13:27.909Z,7.38
2022-09-23T05:15:58.907Z,8.05
2022-09-23T05:18:25.927Z,7.53
2022-09-23T05:20:53.575Z,7.25
2022-09-23T05:23:20.518Z,7.70
2022-09-23T05:25:48.462Z,8.13
2022-09-23T05:28:20.113Z,8.68
2022-09-23T05:30:47.111Z,9.30
2022-09-23T05:33:14.395Z,8.95
2022-09-23T05:35:46.633Z,8.02
2022-09-23T05:38:13.574Z,7.55
2022-09-23T05:40:40.797Z,6.80
2022-09-23T05:43:07.877Z,6.72
2022-09-23T05:45:35.907Z,7.72
2022-09-23T05:48:02.845Z,7.97
2022-09-23T05:50:29.707Z,7.63
2022-09-23T05:52:56.537Z,6.53
2022-09-23T05:55:23.428Z,6.20
2022-09-23T05:57:50.279Z,6.60
2022-09-23T06:00:17.698Z,7.70
2022-09-23T06:02:44.698Z,6.20
2022-09-23T06:05:12.297Z,6.30
2022-09-23T06:07:39.109Z,7.28
2022-09-23T06:10:06.673Z,7.55
2022-09-23T06:12:35.057Z,6.97
2022-09-23T06:15:02.283Z,7.30
2022-09-23T06:17:30.179Z,8.23
2022-09-23T06:19:57.093Z,7.32
2022-09-23T06:22:24.855Z,8.45
2022-09-23T06:24:51.707Z,7.70
2022-09-23T06:27:18.663Z,8.77
2022-09-23T06:29:45.679Z,7.88
2022-09-23T06:32:12.675Z,6.80
2022-09-23T06:34:51.161Z,8.07
2022-09-23T06:37:20.688Z,7.93
2022-09-23T06:39:47.983Z,7.65
2022-09-23T06:42:16.730Z,8.05
2022-09-23T06:44:43.627Z,7.25
2022-09-23T06:47:10.441Z,6.75
2022-09-23T06:49:37.527Z,6.78
2022-09-23T06:52:06.330Z,6.32
2022-09-23T06:54:33.246Z,6.75
2022-09-23T06:57:00.222Z,6.63
2022-09-23T06:59:27.037Z,10.77
2022-09-23T07:01:54.171Z,7.47
2022-09-23T07:04:21.302Z,6.90
2022-09-23T07:06:48.261Z,6.97
2022-09-23T07:09:15.298Z,7.50
2022-09-23T07:11:42.297Z,8.40
2022-09-23T07:14:09.447Z,7.10
2022-09-23T07:16:36.738Z,6.90
2022-09-23T07:19:03.614Z,7.78
2022-09-23T07:21:30.729Z,6.00
2022-09-23T07:23:58.421Z,5.82
2022-09-23T07:26:25.892Z,6.47
2022-09-23T07:28:56.948Z,6.28
2022-09-23T07:31:36.031Z,6.30
2022-09-23T07:34:05.673Z,6.55
2022-09-23T07:36:33.017Z,5.82
2022-09-23T07:39:03.987Z,6.45
2022-09-23T07:41:31.757Z,7.40
2022-09-23T07:44:00.655Z,6.60
2022-09-23T07:46:28.864Z,6.70
2022-09-23T07:48:55.950Z,7.07
2022-09-23T07:51:24.479Z,7.60
2022-09-23T07:53:52.276Z,6.88
2022-09-23T07:56:19.999Z,7.95
2022-09-23T07:59:00.092Z,9.63
2022-09-23T08:01:29.380Z,12.23
2022-09-23T08:03:57.057Z,8.88
2022-09-23T08:06:24.294Z,7.18
2022-09-23T08:08:53.473Z,6.97
2022-09-23T08:11:20.697Z,6.35
2022-09-23T08:13:47.898Z,6.22
2022-09-23T08:16:15.081Z,6.25
2022-09-23T08:18:45.552Z,6.68
2022-09-23T08:21:12.773Z,5.90
2022-09-23T08:23:39.589Z,5.75
2022-09-23T08:26:11.815Z,5.70
2022-09-23T08:28:44.583Z,5.95
2022-09-23T08:31:13.815Z,4.80
2022-09-23T08:33:41.226Z,4.63
2022-09-23T08:36:08.146Z,4.78
2022-09-23T08:38:35.125Z,5.30
2022-09-23T08:41:12.504Z,5.50
2022-09-23T08:43:40.949Z,4.88
2022-09-23T08:46:11.453Z,5.25
2022-09-23T08:51:16.199Z,4.60
2022-09-23T08:53:44.042Z,6.05
2022-09-23T08:56:10.870Z,5.88
2022-09-23T08:58:53.124Z,5.95
2022-09-23T09:01:22.956Z,5.47
2022-09-23T09:03:54.440Z,5.97
2022-09-23T09:06:21.542Z,5.80
2022-09-23T09:08:53.192Z,6.25
2022-09-23T09:11:21.652Z,6.13
2022-09-23T09:13:53.618Z,5.93
2022-09-23T09:17:01.234Z,6.18
2022-09-23T09:19:52.324Z,6.70
2022-09-23T09:22:29.184Z,5.45
2022-09-23T09:24:58.759Z,9.23
2022-09-23T09:27:25.700Z,6.32
2022-09-23T09:29:55.229Z,5.40
2022-09-23T09:32:33.226Z,4.25
2022-09-23T09:35:05.396Z,4.88
2022-09-23T09:37:33.075Z,5.13
2022-09-23T09:40:00.129Z,5.15
2022-09-23T09:42:30.907Z,4.80
2022-09-23T09:47:29.225Z,4.80
2022-09-23T09:50:10.400Z,4.93
2022-09-23T09:52:42.900Z,5.32
2022-09-23T09:55:12.462Z,4.80
2022-09-23T09:57:48.123Z,5.75
2022-09-23T10:00:18.934Z,5.28
2022-09-23T10:02:46.788Z,5.45
2022-09-23T10:05:27.630Z,5.40
2022-09-23T10:07:54.907Z,5.18
2022-09-23T10:10:32.766Z,5.30
2022-09-23T10:13:13.555Z,6.18
2022-09-23T10:15:45.347Z,5.50
2022-09-23T10:18:20.003Z,5.68
2022-09-23T10:20:48.204Z,5.72
2022-09-23T10:23:18.082Z,7.45
2022-09-23T10:25:55.745Z,10.53
2022-09-23T10:28:41.448Z,6.28
2022-09-23T10:31:14.437Z,4.97
2022-09-23T10:33:54.845Z,5.20
2022-09-23T10:36:21.942Z,4.50
2022-09-23T10:39:27.940Z,4.70
2022-09-23T10:42:25.660Z,4.72
2022-09-23T10:45:38.598Z,5.07
2022-09-23T10:48:13.435Z,4.75
2022-09-23T10:50:50.139Z,6.45
2022-09-23T10:53:20.014Z,3.50
2022-09-23T10:55:52.990Z,5.33
2022-09-23T10:58:25.840Z,3.85
2022-09-23T11:00:58.620Z,4.55
2022-09-23T11:03:28.266Z,4.45
2022-09-23T11:06:33.662Z,4.40
2022-09-23T11:09:23.412Z,3.60
2022-09-23T11:11:50.189Z,3.50
2022-09-23T11:14:42.709Z,3.67
2022-09-23T11:17:16.338Z,3.78
2022-09-23T11:20:01.566Z,4.00
2022-09-23T11:22:37.614Z,4.13
2022-09-23T11:25:17.034Z,3.97
2022-09-23T11:27:43.914Z,3.60
2022-09-23T11:30:20.245Z,3.60
2022-09-23T11:32:56.175Z,3.85
2022-09-23T11:35:25.817Z,3.75
2022-09-23T11:37:55.924Z,4.00
2022-09-23T11:40:33.708Z,4.15
2022-09-23T11:43:09.410Z,4.28
2022-09-23T11:45:48.100Z,4.13
2022-09-23T11:48:15.059Z,3.83
2022-09-23T11:50:48.978Z,3.95
2022-09-23T11:53:21.241Z,4.38
2022-09-23T11:55:57.870Z,3.83
2022-09-23T11:58:31.725Z,4.40
2022-09-23T12:01:01.669Z,4.05
2022-09-23T12:03:44.045Z,4.00
2022-09-23T12:06:15.900Z,4.05
2022-09-23T12:08:43.665Z,4.60
2022-09-23T12:11:30.340Z,4.05
2022-09-23T12:13:57.313Z,4.43
2022-09-23T12:16:42.683Z,4.80
2022-09-23T12:19:11.276Z,4.32
2022-09-23T12:21:50.323Z,4.65
2022-09-23T12:24:19.275Z,4.95
2022-09-23T12:26:49.748Z,4.95
2022-09-23T12:29:16.875Z,5.07
2022-09-23T12:31:46.772Z,4.60
2022-09-23T12:34:30.909Z,4.30
2022-09-23T12:37:04.698Z,5.20
2022-09-23T12:39:33.645Z,4.50
2022-09-23T12:42:02.323Z,5.38
2022-09-23T12:44:45.539Z,4.82
2022-09-23T12:47:21.085Z,5.30
2022-09-23T12:49:48.684Z,5.05
2022-09-23T12:52:18.757Z,5.47
2022-09-23T12:54:46.791Z,5.82
2022-09-23T12:57:14.430Z,5.20
2022-09-23T12:59:56.294Z,5.47
2022-09-23T13:02:32.161Z,6.00
2022-09-23T13:05:17.585Z,5.90
2022-09-23T13:07:48.813Z,5.78
2022-09-23T13:10:25.345Z,6.13
2022-09-23T13:12:52.871Z,6.03
2022-09-23T13:15:34.098Z,5.57
2022-09-23T13:18:20.453Z,5.97
2022-09-23T13:20:48.447Z,5.10
2022-09-23T13:23:26.001Z,5.65
2022-09-23T13:26:00.544Z,6.40
2022-09-23T13:28:29.917Z,5.63
2022-09-23T13:30:56.867Z,5.78
2022-09-23T13:33:24.279Z,5.55
2022-09-23T13:35:52.590Z,5.45
2022-09-23T13:38:19.473Z,5.43
2022-09-23T13:40:47.129Z,5.55
2022-09-23T13:43:36.525Z,5.45
2022-09-23T13:46:16.357Z,5.65
2022-09-23T13:48:47.930Z,6.22
2022-09-23T13:51:21.957Z,6.38
2022-09-23T13:53:55.587Z,6.35
2022-09-23T13:56:25.568Z,5.07
2022-09-23T13:58:52.571Z,4.95
2022-09-23T14:01:22.633Z,4.78
2022-09-23T14:03:51.334Z,4.60
2022-09-23T14:06:18.804Z,4.65
2022-09-23T14:08:47.527Z,3.85
2022-09-23T14:11:18.259Z,3.75
2022-09-23T14:16:15.228Z,3.78
2022-09-23T14:18:46.243Z,4.05
2022-09-23T14:21:26.411Z,4.40
2022-09-23T14:23:53.345Z,4.43
2022-09-23T14:26:21.154Z,4.60
2022-09-23T14:28:48.459Z,4.40
2022-09-23T14:31:15.690Z,4.18
2022-09-23T14:33:42.842Z,4.18
2022-09-23T14:36:31.049Z,5.03
2022-09-23T14:39:03.056Z,4.80
2022-09-23T14:41:34.367Z,4.45
2022-09-23T14:44:02.387Z,4.80
2022-09-23T14:46:31.384Z,4.85
2022-09-23T14:49:15.020Z,5.22
2022-09-23T14:51:50.422Z,5.43
2022-09-23T14:54:24.535Z,5.15
2022-09-23T14:56:51.400Z,5.00
2022-09-23T14:59:26.106Z,4.97
2022-09-23T15:01:53.184Z,6.07
2022-09-23T15:04:20.201Z,5.53
2022-09-23T15:06:50.241Z,5.55
2022-09-23T15:09:21.504Z,5.65
2022-09-23T15:11:51.964Z,5.28
2022-09-23T15:14:37.154Z,5.32
2022-09-23T15:17:07.030Z,6.38
2022-09-23T15:19:35.469Z,5.80
2022-09-23T15:22:02.412Z,5.82
2022-09-23T15:24:34.473Z,6.20
2022-09-23T15:27:01.444Z,5.75
2022-09-23T15:29:28.401Z,5.88
2022-09-23T15:31:55.858Z,6.18
2022-09-23T15:34:22.817Z,5.60
2022-09-23T15:36:49.881Z,5.53
2022-09-23T15:39:17.050Z,5.57
2022-09-23T15:41:44.108Z,5.13
2022-09-23T15:44:18.939Z,5.78
2022-09-23T15:46:46.870Z,5.35
2022-09-23T15:49:32.921Z,6.40
2022-09-23T15:52:00.431Z,5.65
2022-09-23T15:54:28.435Z,5.70
2022-09-23T15:56:58.492Z,5.90
2022-09-23T16:01:55.113Z,5.45
2022-09-23T16:04:23.154Z,6.28
2022-09-23T16:06:50.183Z,5.82
2022-09-23T16:09:18.432Z,5.72
2022-09-23T16:11:47.960Z,4.75
2022-09-23T16:14:17.169Z,4.53
2022-09-23T16:16:45.420Z,4.93
2022-09-23T16:19:12.977Z,5.47
2022-09-23T16:21:44.812Z,5.13
2022-09-23T16:24:16.370Z,4.93
2022-09-23T16:26:44.306Z,5.15
2022-09-23T16:29:14.615Z,5.38
2022-09-23T16:31:41.923Z,5.47
2022-09-23T16:34:09.262Z,5.75
2022-09-23T16:36:39.641Z,5.45
2022-09-23T16:39:07.943Z,5.50
2022-09-23T16:41:35.812Z,5.82
2022-09-23T16:44:04.703Z,6.00
2022-09-23T16:46:32.241Z,6.13
2022-09-23T16:48:59.660Z,6.20
2022-09-23T16:51:28.981Z,6.43
2022-09-23T16:53:57.021Z,6.57
2022-09-23T16:56:28.458Z,6.82
2022-09-23T16:58:56.521Z,6.88
2022-09-23T17:01:43.972Z,6.95
2022-09-23T17:04:11.277Z,7.78
2022-09-23T17:06:50.750Z,6.97
2022-09-23T17:09:21.756Z,8.38
2022-09-23T17:11:52.186Z,7.93
2022-09-23T17:14:19.163Z,6.95
2022-09-23T17:16:46.274Z,7.00
2022-09-23T17:19:13.441Z,7.40
2022-09-23T17:21:40.402Z,6.00
2022-09-23T17:24:07.726Z,5.78
2022-09-23T17:26:35.149Z,5.72
2022-09-23T17:29:02.265Z,6.15
2022-09-23T17:31:31.809Z,6.35
2022-09-23T17:33:58.743Z,7.13
2022-09-23T17:36:28.651Z,5.97
2022-09-23T17:38:56.131Z,5.72
2022-09-23T17:41:23.062Z,6.85
2022-09-23T17:44:00.857Z,6.03
2022-09-23T17:46:30.275Z,6.35
2022-09-23T17:48:57.258Z,6.50
2022-09-23T17:51:27.165Z,7.18
2022-09-23T17:53:54.022Z,5.97
2022-09-23T17:56:21.852Z,7.28
2022-09-23T17:58:49.550Z,6.53
2022-09-23T18:01:20.952Z,6.13
2022-09-23T18:03:48.523Z,6.38
2022-09-23T18:06:17.159Z,6.18
2022-09-23T18:08:46.139Z,6.20
2022-09-23T18:11:23.381Z,6.18
2022-09-23T18:13:52.542Z,5.80
2022-09-23T18:16:21.017Z,5.15
2022-09-23T18:18:51.868Z,5.70
2022-09-23T18:21:20.284Z,5.88
2022-09-23T18:23:47.358Z,5.43
2022-09-23T18:26:15.810Z,5.28
2022-09-23T18:28:43.671Z,5.53
2022-09-23T18:31:11.128Z,5.63
2022-09-23T18:33:38.207Z,5.80
2022-09-23T18:36:05.771Z,5.82
2022-09-23T18:38:32.748Z,5.82
2022-09-23T18:41:00.445Z,5.55
2022-09-23T18:43:37.444Z,5.75
2022-09-23T18:46:11.486Z,6.13
2022-09-23T18:48:57.562Z,6.20
2022-09-23T18:51:26.359Z,5.90
2022-09-23T18:53:57.998Z,5.97
2022-09-23T18:56:27.006Z,6.35
2022-09-23T18:58:55.301Z,5.97
2022-09-23T19:01:23.054Z,5.85
2022-09-23T19:03:57.478Z,6.45
2022-09-23T19:06:25.237Z,6.55
2022-09-23T19:08:53.756Z,6.35
2022-09-23T19:11:21.572Z,7.10
2022-09-23T19:13:53.707Z,6.47
2022-09-23T19:16:21.973Z,5.97
2022-09-23T19:18:49.388Z,6.85
2022-09-23T19:21:17.887Z,6.53
2022-09-23T19:23:48.204Z,6.60
2022-09-23T19:26:16.721Z,7.82
2022-09-23T19:28:50.562Z,6.53
2022-09-23T19:31:25.933Z,6.70
2022-09-23T19:33:57.304Z,7.40
2022-09-23T19:36:26.382Z,6.88
2022-09-23T19:38:54.474Z,7.85
2022-09-23T19:41:21.333Z,7.13
2022-09-23T19:43:49.245Z,7.30
2022-09-23T19:46:16.532Z,6.95
2022-09-23T19:48:43.556Z,6.72
2022-09-23T19:51:10.548Z,6.90
2022-09-23T19:53:37.619Z,7.30
2022-09-23T19:56:07.531Z,7.43
2022-09-23T19:58:35.716Z,6.80
2022-09-23T20:01:07.430Z,7.18
2022-09-23T20:03:34.368Z,8.18
2022-09-23T20:06:01.234Z,7.13
2022-09-23T20:08:28.269Z,7.05
2022-09-23T20:10:55.151Z,7.57
2022-09-23T20:13:22.496Z,7.43
2022-09-23T20:15:58.405Z,8.15
2022-09-23T20:21:24.618Z,7.53
2022-09-23T20:23:52.008Z,7.70
2022-09-23T20:26:46.816Z,8.45
2022-09-23T20:29:40.946Z,8.50
2022-09-23T20:32:09.883Z,8.63
2022-09-23T20:34:37.301Z,8.70
2022-09-23T20:37:07.221Z,9.18
2022-09-23T20:39:34.071Z,8.85
2022-09-23T20:42:02.772Z,8.68
2022-09-23T20:44:29.685Z,9.50
2022-09-23T20:47:27.098Z,9.35
2022-09-23T20:49:59.915Z,9.90
2022-09-23T20:52:26.778Z,9.18
2022-09-23T20:54:53.564Z,8.93
2022-09-23T20:57:20.516Z,9.65
2022-09-23T21:03:58.515Z,9.75
2022-09-23T21:06:26.351Z,8.35
2022-09-23T21:08:53.869Z,9.13
2022-09-23T21:11:21.955Z,9.25
2022-09-23T21:13:51.747Z,9.10
2022-09-23T21:16:43.696Z,9.53
2022-09-23T21:19:13.309Z,9.73
2022-09-23T21:25:27.312Z,10.40
2022-09-23T21:28:13.144Z,9.52
2022-09-23T21:31:01.934Z,9.20
2022-09-23T21:33:29.219Z,9.43
2022-09-23T21:35:56.704Z,9.80
2022-09-23T21:38:24.277Z,9.02
2022-09-23T21:41:01.455Z,8.68
2022-09-23T21:43:31.741Z,8.70
2022-09-23T21:46:12.044Z,9.95
2022-09-23T21:49:18.710Z,9.40
2022-09-23T21:55:16.655Z,9.35
2022-09-23T21:57:44.261Z,10.30
2022-09-23T22:00:11.477Z,9.77
2022-09-23T22:02:40.061Z,10.05
2022-09-23T22:05:07.467Z,10.18
2022-09-23T22:08:17.543Z,9.93
2022-09-23T22:11:40.474Z,9.07
2022-09-23T22:14:09.387Z,10.25
2022-09-23T22:16:36.976Z,10.15
2022-09-23T22:19:07.036Z,10.38
2022-09-23T22:21:35.438Z,10.68
2022-09-23T22:24:02.789Z,11.38
2022-09-23T22:26:31.928Z,11.00
2022-09-23T22:29:17.354Z,10.38
2022-09-23T22:32:02.574Z,10.07
2022-09-23T22:34:49.189Z,10.13
2022-09-23T22:37:20.510Z,10.20
2022-09-23T22:39:47.415Z,9.80
2022-09-23T22:42:14.516Z,9.52
2022-09-23T22:44:41.422Z,10.50
2022-09-23T22:47:09.361Z,9.82
2022-09-23T22:49:36.510Z,9.05
2022-09-23T22:52:04.149Z,9.43
2022-09-23T22:54:33.946Z,9.63
2022-09-23T22:57:03.371Z,9.73
2022-09-23T22:59:30.285Z,9.32
2022-09-23T23:01:57.575Z,8.73
2022-09-23T23:04:24.401Z,8.63
2022-09-23T23:06:51.578Z,8.75
2022-09-23T23:09:19.000Z,8.70
2022-09-23T23:11:47.281Z,8.02
2022-09-23T23:14:16.334Z,8.18
2022-09-23T23:16:44.062Z,8.38
2022-09-23T23:19:13.774Z,7.90
2022-09-23T23:21:43.482Z,8.25
2022-09-23T23:24:14.248Z,7.53
2022-09-23T23:29:09.839Z,8.10
2022-09-23T23:31:36.746Z,7.30
2022-09-23T23:34:03.695Z,7.82
2022-09-23T23:36:31.282Z,6.97
2022-09-23T23:38:58.144Z,7.40
2022-09-23T23:41:24.993Z,6.82
2022-09-23T23:43:55.613Z,7.32
2022-09-23T23:48:49.302Z,6.75
2022-09-23T23:51:16.533Z,6.85
2022-09-23T23:53:43.697Z,6.25
2022-09-23T23:56:11.860Z,6.80
2022-09-23T23:58:38.808Z,6.65
